createdAt,value
2018-04-18T00:00:56.615Z,0
2018-04-18T00:02:04.655Z,0
2018-04-18T00:03:12.753Z,0
2018-04-18T00:04:20.807Z,0
2018-04-18T00:05:28.862Z,0
2018-04-18T00:06:36.926Z,0
2018-04-18T00:07:44.951Z,0
2018-04-18T00:08:53.031Z,0
2018-04-18T00:10:01.088Z,0
2018-04-18T00:11:09.153Z,0
2018-04-18T00:12:17.234Z,0
2018-04-18T00:13:25.259Z,0
2018-04-18T00:14:33.373Z,0
2018-04-18T00:15:41.398Z,0
2018-04-18T00:16:49.460Z,0
2018-04-18T00:17:57.499Z,0
2018-04-18T00:19:05.550Z,0
2018-04-18T00:20:13.634Z,0
2018-04-18T00:21:21.707Z,0
2018-04-18T00:22:29.753Z,0
2018-04-18T00:23:37.803Z,0
2018-04-18T00:24:45.894Z,0
2018-04-18T00:25:53.922Z,0
2018-04-18T00:27:01.990Z,0
2018-04-18T00:28:10.057Z,0
2018-04-18T00:29:18.103Z,0
2018-04-18T00:30:26.169Z,0
2018-04-18T00:31:34.215Z,0
2018-04-18T00:32:42.281Z,0
2018-04-18T00:33:50.338Z,0
2018-04-18T00:34:58.403Z,0
2018-04-18T00:36:06.456Z,0
2018-04-18T00:37:14.538Z,0
2018-04-18T00:38:22.568Z,0
2018-04-18T00:39:30.634Z,0
2018-04-18T00:40:38.690Z,0
2018-04-18T00:41:46.746Z,0
2018-04-18T00:42:54.774Z,0
2018-04-18T00:44:02.865Z,0
2018-04-18T00:45:10.919Z,0
2018-04-18T00:46:19.006Z,0
2018-04-18T00:47:27.042Z,0
2018-04-18T00:48:35.079Z,0
2018-04-18T00:49:43.148Z,0
2018-04-18T00:50:51.210Z,0
2018-04-18T00:51:59.277Z,0
2018-04-18T00:53:07.336Z,0
2018-04-18T00:54:15.363Z,0
2018-04-18T00:55:23.440Z,0
2018-04-18T00:56:31.510Z,0
2018-04-18T00:57:39.581Z,0
2018-04-18T00:58:47.622Z,0
2018-04-18T00:59:55.691Z,0
2018-04-18T01:01:03.738Z,0
2018-04-18T01:02:11.802Z,0
2018-04-18T01:03:19.886Z,0
2018-04-18T01:04:27.924Z,0
2018-04-18T01:05:35.986Z,0
2018-04-18T01:06:44.043Z,0
2018-04-18T01:07:52.093Z,0
2018-04-18T01:09:00.178Z,0
2018-04-18T01:10:08.212Z,0
2018-04-18T01:11:16.281Z,0
2018-04-18T01:12:24.338Z,0
2018-04-18T01:13:32.403Z,0
2018-04-18T01:14:40.454Z,0
2018-04-18T01:15:48.519Z,0
2018-04-18T01:16:56.558Z,0
2018-04-18T01:18:04.616Z,0
2018-04-18T01:19:12.678Z,0
2018-04-18T01:20:20.749Z,0
2018-04-18T01:21:28.793Z,0
2018-04-18T01:22:36.866Z,0
2018-04-18T01:23:44.886Z,0
2018-04-18T01:24:52.985Z,0
2018-04-18T01:26:01.033Z,0
2018-04-18T01:27:09.108Z,0
2018-04-18T01:28:17.160Z,0
2018-04-18T01:29:25.190Z,0
2018-04-18T01:30:33.260Z,0
2018-04-18T01:31:41.320Z,0
2018-04-18T01:32:49.378Z,0
2018-04-18T01:33:57.464Z,0
2018-04-18T01:35:05.499Z,0
2018-04-18T01:36:13.581Z,0
2018-04-18T01:37:21.630Z,0
2018-04-18T01:38:29.681Z,0
2018-04-18T01:39:37.734Z,0
2018-04-18T01:40:45.808Z,0
2018-04-18T01:41:53.850Z,0
2018-04-18T01:43:01.918Z,0
2018-04-18T01:44:09.985Z,0
2018-04-18T01:45:18.044Z,0
2018-04-18T01:46:26.099Z,0
2018-04-18T01:47:34.162Z,0
2018-04-18T01:48:42.212Z,0
2018-04-18T01:49:50.272Z,0
2018-04-18T01:50:58.338Z,0
2018-04-18T01:52:06.383Z,0
2018-04-18T01:53:14.442Z,0
2018-04-18T01:54:22.514Z,0
2018-04-18T01:55:30.567Z,0
2018-04-18T01:56:38.628Z,0
2018-04-18T01:57:46.689Z,0
2018-04-18T01:58:54.717Z,0
2018-04-18T02:00:02.802Z,0
2018-04-18T02:01:10.858Z,0
2018-04-18T02:02:18.907Z,0
2018-04-18T02:03:26.979Z,0
2018-04-18T02:04:35.002Z,0
2018-04-18T02:05:43.096Z,0
2018-04-18T02:06:51.157Z,0
2018-04-18T02:07:59.209Z,0
2018-04-18T02:09:07.275Z,0
2018-04-18T02:10:15.312Z,0
2018-04-18T02:11:23.391Z,0
2018-04-18T02:12:31.450Z,0
2018-04-18T02:13:39.517Z,0
2018-04-18T02:14:47.575Z,0
2018-04-18T02:15:55.623Z,0
2018-04-18T02:17:03.682Z,0
2018-04-18T02:18:11.752Z,0
2018-04-18T02:19:19.808Z,0
2018-04-18T02:20:27.860Z,0
2018-04-18T02:21:35.924Z,0
2018-04-18T02:22:43.983Z,0
2018-04-18T02:23:52.055Z,0
2018-04-18T02:25:00.097Z,0
2018-04-18T02:26:08.166Z,0
2018-04-18T02:27:16.214Z,0
2018-04-18T02:28:24.284Z,0
2018-04-18T02:29:32.332Z,0
2018-04-18T02:30:40.404Z,0
2018-04-18T02:31:48.467Z,0
2018-04-18T02:32:56.514Z,0
2018-04-18T02:34:04.570Z,0
2018-04-18T02:35:12.634Z,0
2018-04-18T02:36:20.720Z,0
2018-04-18T02:37:28.756Z,0
2018-04-18T02:38:36.808Z,0
2018-04-18T02:39:44.839Z,0
2018-04-18T02:40:52.934Z,0
2018-04-18T02:42:00.991Z,0
2018-04-18T02:43:09.053Z,0
2018-04-18T02:44:17.117Z,0
2018-04-18T02:45:25.133Z,0
2018-04-18T02:46:33.228Z,0
2018-04-18T02:47:41.278Z,0
2018-04-18T02:48:49.354Z,0
2018-04-18T02:49:57.408Z,0
2018-04-18T02:51:05.444Z,0
2018-04-18T02:52:13.526Z,0
2018-04-18T02:53:21.576Z,0
2018-04-18T02:54:29.629Z,0
2018-04-18T02:55:37.703Z,0
2018-04-18T02:56:45.753Z,0
2018-04-18T02:57:53.828Z,0
2018-04-18T02:59:01.876Z,0
2018-04-18T03:00:09.937Z,0
2018-04-18T03:01:17.992Z,0
2018-04-18T03:02:26.055Z,0
2018-04-18T03:03:34.097Z,0
2018-04-18T03:04:42.180Z,0
2018-04-18T03:05:50.224Z,0
2018-04-18T03:06:58.281Z,0
2018-04-18T03:08:06.339Z,0
2018-04-18T03:09:14.408Z,0
2018-04-18T03:10:22.465Z,0
2018-04-18T03:11:30.518Z,0
2018-04-18T03:12:38.585Z,0
2018-04-18T03:13:46.643Z,0
2018-04-18T03:14:54.678Z,0
2018-04-18T03:16:02.765Z,0
2018-04-18T03:17:10.815Z,0
2018-04-18T03:18:18.873Z,0
2018-04-18T03:19:26.943Z,0
2018-04-18T03:20:34.963Z,0
2018-04-18T03:21:43.053Z,0
2018-04-18T03:22:51.117Z,0
2018-04-18T03:23:59.177Z,0
2018-04-18T03:25:07.218Z,0
2018-04-18T03:26:15.258Z,0
2018-04-18T03:27:23.346Z,0
2018-04-18T03:28:31.421Z,0
2018-04-18T03:29:39.471Z,0
2018-04-18T03:30:47.536Z,0
2018-04-18T03:31:55.591Z,0
2018-04-18T03:33:03.643Z,0
2018-04-18T03:34:11.708Z,0
2018-04-18T03:35:19.767Z,0
2018-04-18T03:36:27.829Z,0
2018-04-18T03:37:35.881Z,0
2018-04-18T03:38:43.952Z,0
2018-04-18T03:39:52.793Z,0
2018-04-18T03:41:00.066Z,0
2018-04-18T03:42:08.125Z,0
2018-04-18T03:43:16.187Z,0
2018-04-18T03:44:24.235Z,0
2018-04-18T03:45:32.322Z,0
2018-04-18T03:46:40.364Z,0
2018-04-18T03:47:48.421Z,0
2018-04-18T03:48:56.483Z,0
2018-04-18T03:50:04.534Z,0
2018-04-18T03:51:12.591Z,0
2018-04-18T03:52:20.661Z,0
2018-04-18T03:53:28.715Z,0
2018-04-18T03:54:36.774Z,0
2018-04-18T03:55:44.807Z,0
2018-04-18T03:56:52.885Z,0
2018-04-18T03:58:00.961Z,0
2018-04-18T03:59:09.017Z,0
2018-04-18T04:00:17.078Z,0
2018-04-18T04:01:25.100Z,0
2018-04-18T04:02:33.192Z,0
2018-04-18T04:03:41.251Z,0
2018-04-18T04:04:49.309Z,0
2018-04-18T04:05:57.367Z,0
2018-04-18T04:07:05.405Z,0
2018-04-18T04:08:13.487Z,0
2018-04-18T04:09:21.552Z,0
2018-04-18T04:10:29.610Z,0
2018-04-18T04:11:37.661Z,0
2018-04-18T04:12:45.722Z,0
2018-04-18T04:13:53.784Z,0
2018-04-18T04:15:01.845Z,0
2018-04-18T04:16:09.902Z,0
2018-04-18T04:17:17.971Z,0
2018-04-18T04:18:26.021Z,0
2018-04-18T04:19:34.084Z,0
2018-04-18T04:20:42.131Z,0
2018-04-18T04:21:50.210Z,0
2018-04-18T04:22:58.252Z,0
2018-04-18T04:24:06.326Z,5
2018-04-18T04:25:14.374Z,5
2018-04-18T04:26:22.439Z,5
2018-04-18T04:27:30.504Z,5
2018-04-18T04:28:38.555Z,5
2018-04-18T04:29:46.615Z,5
2018-04-18T04:30:54.683Z,10
2018-04-18T04:32:02.734Z,10
2018-04-18T04:33:10.933Z,10
2018-04-18T04:34:18.857Z,10
2018-04-18T04:35:26.913Z,15
2018-04-18T04:36:34.951Z,15
2018-04-18T04:37:43.035Z,15
2018-04-18T04:38:51.080Z,15
2018-04-18T04:39:59.141Z,20
2018-04-18T04:41:07.205Z,20
2018-04-18T04:42:15.243Z,20
2018-04-18T04:43:23.605Z,25
2018-04-18T04:44:31.716Z,25
2018-04-18T04:45:39.614Z,25
2018-04-18T04:46:47.506Z,30
2018-04-18T04:47:55.571Z,30
2018-04-18T04:49:03.623Z,30
2018-04-18T04:50:11.934Z,35
2018-04-18T04:51:19.734Z,35
2018-04-18T04:52:28.311Z,35
2018-04-18T04:53:35.859Z,40
2018-04-18T04:54:43.927Z,40
2018-04-18T04:55:51.991Z,40
2018-04-18T04:57:00.028Z,45
2018-04-18T04:58:08.099Z,45
2018-04-18T04:59:16.163Z,50
2018-04-18T05:00:24.196Z,50
2018-04-18T05:01:32.277Z,50
2018-04-18T05:02:40.329Z,55
2018-04-18T05:03:48.397Z,55
2018-04-18T05:04:56.450Z,55
2018-04-18T05:06:04.503Z,60
2018-04-18T05:07:12.570Z,60
2018-04-18T05:08:20.626Z,60
2018-04-18T05:09:28.683Z,65
2018-04-18T05:10:36.741Z,65
2018-04-18T05:11:44.785Z,65
2018-04-18T05:12:52.866Z,70
2018-04-18T05:14:00.941Z,70
2018-04-18T05:15:08.976Z,70
2018-04-18T05:16:17.641Z,75
2018-04-18T05:17:25.072Z,75
2018-04-18T05:18:33.150Z,75
2018-04-18T05:19:41.337Z,80
2018-04-18T05:20:50.658Z,80
2018-04-18T05:21:57.331Z,80
2018-04-18T05:23:05.380Z,85
2018-04-18T05:24:13.451Z,85
2018-04-18T05:25:21.510Z,85
2018-04-18T05:26:29.569Z,85
2018-04-18T05:27:37.634Z,90
2018-04-18T05:28:45.698Z,90
2018-04-18T05:29:53.766Z,90
2018-04-18T05:31:01.816Z,95
2018-04-18T05:32:09.874Z,95
2018-04-18T05:33:17.933Z,105
2018-04-18T05:34:25.994Z,115
2018-04-18T05:35:34.062Z,110
2018-04-18T05:36:42.117Z,105
2018-04-18T05:37:50.173Z,105
2018-04-18T05:38:58.242Z,110
2018-04-18T05:40:06.299Z,120
2018-04-18T05:41:14.355Z,125
2018-04-18T05:42:22.417Z,130
2018-04-18T05:43:30.481Z,135
2018-04-18T05:44:38.558Z,135
2018-04-18T05:45:46.591Z,135
2018-04-18T05:46:54.639Z,155
2018-04-18T05:48:02.720Z,175
2018-04-18T05:49:10.775Z,170
2018-04-18T05:50:18.838Z,180
2018-04-18T05:51:26.892Z,175
2018-04-18T05:52:34.941Z,170
2018-04-18T05:53:43.027Z,170
2018-04-18T05:54:51.109Z,165
2018-04-18T05:55:59.141Z,160
2018-04-18T05:57:07.211Z,160
2018-04-18T05:58:15.240Z,155
2018-04-18T05:59:23.340Z,170
2018-04-18T06:00:31.391Z,195
2018-04-18T06:01:39.455Z,205
2018-04-18T06:02:47.510Z,210
2018-04-18T06:03:55.587Z,205
2018-04-18T06:05:03.657Z,205
2018-04-18T06:06:11.736Z,200
2018-04-18T06:07:19.762Z,200
2018-04-18T06:08:27.847Z,195
2018-04-18T06:09:35.905Z,195
2018-04-18T06:10:43.981Z,200
2018-04-18T06:11:52.036Z,200
2018-04-18T06:13:00.096Z,195
2018-04-18T06:14:08.157Z,205
2018-04-18T06:15:16.232Z,215
2018-04-18T06:16:24.293Z,215
2018-04-18T06:17:32.377Z,215
2018-04-18T06:18:40.411Z,225
2018-04-18T06:19:48.491Z,230
2018-04-18T06:20:56.539Z,220
2018-04-18T06:22:04.594Z,200
2018-04-18T06:23:12.692Z,195
2018-04-18T06:24:20.769Z,185
2018-04-18T06:25:28.812Z,180
2018-04-18T06:26:36.881Z,185
2018-04-18T06:27:44.925Z,225
2018-04-18T06:28:53.016Z,235
2018-04-18T06:30:01.083Z,215
2018-04-18T06:31:09.138Z,225
2018-04-18T06:32:17.208Z,245
2018-04-18T06:33:25.277Z,225
2018-04-18T06:34:33.342Z,205
2018-04-18T06:35:41.401Z,205
2018-04-18T06:36:49.470Z,205
2018-04-18T06:37:57.540Z,210
2018-04-18T06:39:05.601Z,220
2018-04-18T06:40:13.676Z,215
2018-04-18T06:41:21.746Z,215
2018-04-18T06:42:29.823Z,205
2018-04-18T06:43:37.871Z,200
2018-04-18T06:44:45.934Z,200
2018-04-18T06:45:54.037Z,210
2018-04-18T06:47:02.075Z,200
2018-04-18T06:48:10.146Z,195
2018-04-18T06:49:18.195Z,205
2018-04-18T06:50:26.264Z,200
2018-04-18T06:51:34.349Z,190
2018-04-18T06:52:42.399Z,190
2018-04-18T06:53:50.459Z,190
2018-04-18T06:54:58.552Z,190
2018-04-18T06:56:06.602Z,185
2018-04-18T06:57:14.652Z,205
2018-04-18T06:58:22.734Z,215
2018-04-18T06:59:30.789Z,205
2018-04-18T07:00:38.863Z,195
2018-04-18T07:01:46.922Z,210
2018-04-18T07:02:54.983Z,230
2018-04-18T07:04:03.055Z,240
2018-04-18T07:05:11.127Z,265
2018-04-18T07:06:19.193Z,255
2018-04-18T07:07:27.268Z,270
2018-04-18T07:08:35.294Z,260
2018-04-18T07:09:43.396Z,245
2018-04-18T07:10:51.457Z,240
2018-04-18T07:11:59.521Z,210
2018-04-18T07:13:07.590Z,215
2018-04-18T07:14:15.650Z,235
2018-04-18T07:15:23.725Z,205
2018-04-18T07:16:31.783Z,220
2018-04-18T07:17:39.849Z,325
2018-04-18T07:18:47.917Z,440
2018-04-18T07:19:55.970Z,420
2018-04-18T07:21:04.042Z,395
2018-04-18T07:22:12.121Z,410
2018-04-18T07:23:20.186Z,435
2018-04-18T07:24:28.244Z,330
2018-04-18T07:25:36.323Z,215
2018-04-18T07:26:44.386Z,205
2018-04-18T07:27:52.462Z,205
2018-04-18T07:29:00.515Z,205
2018-04-18T07:30:08.580Z,205
2018-04-18T07:31:16.663Z,205
2018-04-18T07:32:24.753Z,210
2018-04-18T07:33:32.793Z,215
2018-04-18T07:34:40.856Z,215
2018-04-18T07:35:48.929Z,240
2018-04-18T07:36:56.999Z,265
2018-04-18T07:38:05.028Z,230
2018-04-18T07:39:13.126Z,250
2018-04-18T07:40:21.199Z,385
2018-04-18T07:41:29.261Z,625
2018-04-18T07:42:37.336Z,660
2018-04-18T07:43:45.364Z,565
2018-04-18T07:44:53.478Z,565
2018-04-18T07:46:01.526Z,595
2018-04-18T07:47:09.589Z,695
2018-04-18T07:48:17.670Z,670
2018-04-18T07:49:25.740Z,640
2018-04-18T07:50:33.819Z,595
2018-04-18T07:51:41.866Z,530
2018-04-18T07:52:49.936Z,695
2018-04-18T07:53:58.007Z,680
2018-04-18T07:55:06.082Z,590
2018-04-18T07:56:14.141Z,655
2018-04-18T07:57:22.225Z,715
2018-04-18T07:58:30.278Z,755
2018-04-18T07:59:38.363Z,770
2018-04-18T08:00:46.430Z,760
2018-04-18T08:01:54.520Z,790
2018-04-18T08:03:02.589Z,790
2018-04-18T08:04:10.664Z,660
2018-04-18T08:05:18.733Z,520
2018-04-18T08:06:26.792Z,575
2018-04-18T08:07:34.841Z,610
2018-04-18T08:08:42.941Z,615
2018-04-18T08:09:51.016Z,410
2018-04-18T08:10:59.079Z,485
2018-04-18T08:12:07.166Z,510
2018-04-18T08:13:15.207Z,720
2018-04-18T08:14:23.309Z,790
2018-04-18T08:15:31.434Z,815
2018-04-18T08:16:39.456Z,1070
2018-04-18T08:17:47.523Z,1800
2018-04-18T08:18:55.591Z,1960
2018-04-18T08:20:03.657Z,1770
2018-04-18T08:21:11.761Z,1910
2018-04-18T08:22:19.827Z,1540
2018-04-18T08:23:27.886Z,1685
2018-04-18T08:24:35.972Z,1620
2018-04-18T08:25:44.047Z,1570
2018-04-18T08:26:52.123Z,1620
2018-04-18T08:28:00.192Z,845
2018-04-18T08:29:08.259Z,685
2018-04-18T08:30:16.337Z,995
2018-04-18T08:31:24.420Z,1105
2018-04-18T08:32:32.486Z,1110
2018-04-18T08:33:40.561Z,830
2018-04-18T08:34:48.624Z,840
2018-04-18T08:35:56.717Z,1290
2018-04-18T08:37:04.752Z,1220
2018-04-18T08:38:12.853Z,975
2018-04-18T08:39:20.931Z,890
2018-04-18T08:40:29.021Z,770
2018-04-18T08:41:37.115Z,585
2018-04-18T08:42:45.159Z,445
2018-04-18T08:43:53.235Z,360
2018-04-18T08:45:01.309Z,315
2018-04-18T08:46:09.376Z,290
2018-04-18T08:47:17.471Z,280
2018-04-18T08:48:25.521Z,275
2018-04-18T08:49:33.608Z,270
2018-04-18T08:50:41.670Z,245
2018-04-18T08:51:49.756Z,230
2018-04-18T08:52:57.831Z,215
2018-04-18T08:54:05.883Z,210
2018-04-18T08:55:13.974Z,205
2018-04-18T08:56:22.052Z,205
2018-04-18T08:57:30.119Z,210
2018-04-18T08:58:38.221Z,210
2018-04-18T08:59:46.263Z,205
2018-04-18T09:00:54.341Z,205
2018-04-18T09:02:02.415Z,205
2018-04-18T09:03:10.482Z,205
2018-04-18T09:04:18.567Z,205
2018-04-18T09:05:26.625Z,205
2018-04-18T09:06:34.675Z,205
2018-04-18T09:07:42.794Z,205
2018-04-18T09:08:50.838Z,205
2018-04-18T09:09:58.901Z,205
2018-04-18T09:11:06.978Z,210
2018-04-18T09:12:15.043Z,210
2018-04-18T09:13:23.140Z,210
2018-04-18T09:14:31.197Z,210
2018-04-18T09:15:39.254Z,210
2018-04-18T09:16:47.341Z,210
2018-04-18T09:17:55.362Z,210
2018-04-18T09:19:03.475Z,210
2018-04-18T09:20:11.543Z,210
2018-04-18T09:21:19.604Z,205
2018-04-18T09:22:27.671Z,205
2018-04-18T09:23:35.750Z,205
2018-04-18T09:24:43.812Z,210
2018-04-18T09:25:51.890Z,210
2018-04-18T09:26:59.960Z,215
2018-04-18T09:28:08.014Z,210
2018-04-18T09:29:16.079Z,205
2018-04-18T09:30:24.164Z,215
2018-04-18T09:31:32.216Z,215
2018-04-18T09:32:40.296Z,215
2018-04-18T09:33:48.350Z,220
2018-04-18T09:34:56.441Z,220
2018-04-18T09:36:04.481Z,220
2018-04-18T09:37:12.555Z,225
2018-04-18T09:38:20.619Z,220
2018-04-18T09:39:28.710Z,215
2018-04-18T09:40:36.751Z,215
2018-04-18T09:41:44.793Z,215
2018-04-18T09:42:52.903Z,215
2018-04-18T09:44:00.963Z,215
2018-04-18T09:45:09.028Z,215
2018-04-18T09:46:17.113Z,210
2018-04-18T09:47:25.138Z,210
2018-04-18T09:48:33.249Z,210
2018-04-18T09:49:41.311Z,210
2018-04-18T09:50:49.366Z,215
2018-04-18T09:51:57.443Z,215
2018-04-18T09:53:05.498Z,215
2018-04-18T09:54:13.573Z,210
2018-04-18T09:55:21.640Z,205
2018-04-18T09:56:29.703Z,200
2018-04-18T09:57:37.780Z,200
2018-04-18T09:58:45.852Z,195
2018-04-18T09:59:53.909Z,190
2018-04-18T10:01:01.985Z,195
2018-04-18T10:02:10.062Z,190
2018-04-18T10:03:18.107Z,190
2018-04-18T10:04:26.176Z,190
2018-04-18T10:05:34.241Z,190
2018-04-18T10:06:42.307Z,190
2018-04-18T10:07:50.379Z,190
2018-04-18T10:08:58.456Z,190
2018-04-18T10:10:06.519Z,190
2018-04-18T10:11:14.581Z,190
2018-04-18T10:12:22.661Z,195
2018-04-18T10:13:30.726Z,185
2018-04-18T10:14:38.783Z,185
2018-04-18T10:15:46.853Z,185
2018-04-18T10:16:54.886Z,185
2018-04-18T10:18:02.993Z,185
2018-04-18T10:19:11.057Z,185
2018-04-18T10:20:19.119Z,185
2018-04-18T10:21:27.208Z,185
2018-04-18T10:22:35.238Z,180
2018-04-18T10:23:43.326Z,180
2018-04-18T10:24:51.392Z,180
2018-04-18T10:25:59.455Z,185
2018-04-18T10:27:07.536Z,180
2018-04-18T10:28:15.602Z,180
2018-04-18T10:29:23.669Z,180
2018-04-18T10:30:31.731Z,175
2018-04-18T10:31:39.801Z,175
2018-04-18T10:32:47.872Z,175
2018-04-18T10:33:55.937Z,175
2018-04-18T10:35:04.003Z,175
2018-04-18T10:36:12.066Z,180
2018-04-18T10:37:20.137Z,175
2018-04-18T10:38:28.205Z,175
2018-04-18T10:39:36.269Z,175
2018-04-18T10:40:44.346Z,175
2018-04-18T10:41:52.398Z,175
2018-04-18T10:43:00.485Z,175
2018-04-18T10:44:08.537Z,175
2018-04-18T10:45:16.609Z,175
2018-04-18T10:46:24.654Z,170
2018-04-18T10:47:32.756Z,175
2018-04-18T10:48:40.803Z,175
2018-04-18T10:49:48.917Z,170
2018-04-18T10:50:56.953Z,170
2018-04-18T10:52:05.008Z,170
2018-04-18T10:53:13.074Z,170
2018-04-18T10:54:21.146Z,170
2018-04-18T10:55:29.212Z,170
2018-04-18T10:56:37.284Z,170
2018-04-18T10:57:45.331Z,170
2018-04-18T10:58:53.419Z,170
2018-04-18T11:00:01.483Z,170
2018-04-18T11:01:09.557Z,170
2018-04-18T11:02:17.612Z,170
2018-04-18T11:03:25.693Z,170
2018-04-18T11:04:33.771Z,165
2018-04-18T11:05:41.837Z,170
2018-04-18T11:06:49.895Z,170
2018-04-18T11:07:57.955Z,170
2018-04-18T11:09:06.091Z,170
2018-04-18T11:10:14.096Z,170
2018-04-18T11:11:22.167Z,170
2018-04-18T11:12:30.232Z,170
2018-04-18T11:13:38.298Z,170
2018-04-18T11:14:46.376Z,170
2018-04-18T11:15:54.433Z,170
2018-04-18T11:17:02.492Z,170
2018-04-18T11:18:10.578Z,175
2018-04-18T11:19:18.642Z,170
2018-04-18T11:20:26.710Z,175
2018-04-18T11:21:34.751Z,175
2018-04-18T11:22:42.854Z,170
2018-04-18T11:23:50.926Z,170
2018-04-18T11:24:58.972Z,170
2018-04-18T11:26:07.047Z,165
2018-04-18T11:27:15.128Z,165
2018-04-18T11:28:23.191Z,165
2018-04-18T11:29:31.252Z,165
2018-04-18T11:30:39.329Z,165
2018-04-18T11:31:47.381Z,165
2018-04-18T11:32:55.447Z,165
2018-04-18T11:34:03.526Z,165
2018-04-18T11:35:11.603Z,165
2018-04-18T11:36:19.672Z,160
2018-04-18T11:37:27.738Z,160
2018-04-18T11:38:35.789Z,160
2018-04-18T11:39:43.884Z,160
2018-04-18T11:40:51.926Z,160
2018-04-18T11:42:00.012Z,160
2018-04-18T11:43:08.066Z,160
2018-04-18T11:44:16.137Z,160
2018-04-18T11:45:24.214Z,160
2018-04-18T11:46:32.285Z,160
2018-04-18T11:47:40.345Z,160
2018-04-18T11:48:48.405Z,160
2018-04-18T11:49:56.479Z,160
2018-04-18T11:51:04.547Z,160
2018-04-18T11:52:12.616Z,160
2018-04-18T11:53:20.744Z,160
2018-04-18T11:54:28.756Z,160
2018-04-18T11:55:36.827Z,160
2018-04-18T11:56:44.855Z,160
2018-04-18T11:57:52.968Z,160
2018-04-18T11:59:01.025Z,160
2018-04-18T12:00:09.089Z,160
2018-04-18T12:01:17.160Z,160
2018-04-18T12:02:25.211Z,165
2018-04-18T12:03:33.297Z,160
2018-04-18T12:04:41.372Z,160
2018-04-18T12:05:49.428Z,160
2018-04-18T12:06:57.501Z,155
2018-04-18T12:08:05.579Z,155
2018-04-18T12:09:13.630Z,155
2018-04-18T12:10:21.699Z,160
2018-04-18T12:11:29.791Z,160
2018-04-18T12:12:37.849Z,160
2018-04-18T12:13:45.925Z,160
2018-04-18T12:14:53.961Z,160
2018-04-18T12:16:02.056Z,160
2018-04-18T12:17:10.101Z,160
2018-04-18T12:18:18.194Z,160
2018-04-18T12:19:26.247Z,160
2018-04-18T12:20:34.322Z,165
2018-04-18T12:21:42.397Z,165
2018-04-18T12:22:50.461Z,165
2018-04-18T12:23:58.518Z,165
2018-04-18T12:25:06.601Z,160
2018-04-18T12:26:14.643Z,160
2018-04-18T12:27:22.734Z,155
2018-04-18T12:28:30.792Z,155
2018-04-18T12:29:38.868Z,155
2018-04-18T12:30:46.944Z,155
2018-04-18T12:31:54.990Z,150
2018-04-18T12:33:03.079Z,150
2018-04-18T12:34:11.129Z,150
2018-04-18T12:35:19.203Z,150
2018-04-18T12:36:27.268Z,155
2018-04-18T12:37:35.319Z,155
2018-04-18T12:38:43.400Z,155
2018-04-18T12:39:51.464Z,155
2018-04-18T12:40:59.559Z,155
2018-04-18T12:42:07.617Z,155
2018-04-18T12:43:15.692Z,155
2018-04-18T12:44:23.761Z,155
2018-04-18T12:45:31.819Z,160
2018-04-18T12:46:39.885Z,160
2018-04-18T12:47:47.953Z,160
2018-04-18T12:48:56.067Z,160
2018-04-18T12:50:04.102Z,155
2018-04-18T12:51:12.162Z,155
2018-04-18T12:52:20.217Z,155
2018-04-18T12:53:28.296Z,155
2018-04-18T12:54:36.365Z,155
2018-04-18T12:55:44.437Z,155
2018-04-18T12:56:52.495Z,155
2018-04-18T12:58:00.567Z,150
2018-04-18T12:59:08.627Z,145
2018-04-18T13:00:16.703Z,145
2018-04-18T13:01:24.738Z,145
2018-04-18T13:02:32.839Z,145
2018-04-18T13:03:40.915Z,145
2018-04-18T13:04:48.984Z,150
2018-04-18T13:05:57.032Z,150
2018-04-18T13:07:05.099Z,145
2018-04-18T13:08:13.193Z,145
2018-04-18T13:09:21.254Z,145
2018-04-18T13:10:29.328Z,140
2018-04-18T13:11:37.377Z,140
2018-04-18T13:12:45.433Z,140
2018-04-18T13:13:53.527Z,145
2018-04-18T13:15:01.579Z,140
2018-04-18T13:16:09.653Z,140
2018-04-18T13:17:17.735Z,140
2018-04-18T13:18:25.805Z,140
2018-04-18T13:19:33.856Z,140
2018-04-18T13:20:41.937Z,140
2018-04-18T13:21:50.005Z,140
2018-04-18T13:22:58.064Z,140
2018-04-18T13:24:06.126Z,140
2018-04-18T13:25:14.232Z,140
2018-04-18T13:26:22.279Z,140
2018-04-18T13:27:30.331Z,135
2018-04-18T13:28:38.412Z,140
2018-04-18T13:29:46.471Z,140
2018-04-18T13:30:54.592Z,140
2018-04-18T13:32:02.618Z,135
2018-04-18T13:33:10.670Z,135
2018-04-18T13:34:18.742Z,135
2018-04-18T13:35:26.814Z,140
2018-04-18T13:36:34.847Z,140
2018-04-18T13:37:42.948Z,135
2018-04-18T13:38:51.019Z,135
2018-04-18T13:39:59.087Z,135
2018-04-18T13:41:07.157Z,140
2018-04-18T13:42:15.189Z,140
2018-04-18T13:43:23.281Z,140
2018-04-18T13:44:31.358Z,140
2018-04-18T13:45:39.429Z,140
2018-04-18T13:46:47.524Z,140
2018-04-18T13:47:55.602Z,140
2018-04-18T13:49:03.625Z,140
2018-04-18T13:50:11.687Z,140
2018-04-18T13:51:19.764Z,140
2018-04-18T13:52:27.841Z,140
2018-04-18T13:53:35.907Z,140
2018-04-18T13:54:43.999Z,140
2018-04-18T13:55:52.033Z,140
2018-04-18T13:57:00.100Z,140
2018-04-18T13:58:08.177Z,140
2018-04-18T13:59:16.235Z,140
2018-04-18T14:00:24.314Z,145
2018-04-18T14:01:32.375Z,145
2018-04-18T14:02:40.452Z,140
2018-04-18T14:03:48.521Z,145
2018-04-18T14:04:56.582Z,145
2018-04-18T14:06:04.632Z,145
2018-04-18T14:07:12.735Z,140
2018-04-18T14:08:20.787Z,145
2018-04-18T14:09:28.846Z,145
2018-04-18T14:10:36.916Z,145
2018-04-18T14:11:44.959Z,145
2018-04-18T14:12:53.057Z,140
2018-04-18T14:14:01.122Z,145
2018-04-18T14:15:09.216Z,145
2018-04-18T14:16:17.268Z,145
2018-04-18T14:17:25.299Z,145
2018-04-18T14:18:33.399Z,145
2018-04-18T14:19:41.467Z,145
2018-04-18T14:20:49.585Z,145
2018-04-18T14:21:57.594Z,145
2018-04-18T14:23:05.645Z,145
2018-04-18T14:24:13.728Z,145
2018-04-18T14:25:21.820Z,145
2018-04-18T14:26:29.871Z,140
2018-04-18T14:27:37.940Z,140
2018-04-18T14:28:46.006Z,140
2018-04-18T14:29:54.093Z,140
2018-04-18T14:31:02.151Z,140
2018-04-18T14:32:10.286Z,140
2018-04-18T14:33:18.283Z,140
2018-04-18T14:34:26.340Z,140
2018-04-18T14:35:34.415Z,140
2018-04-18T14:36:42.491Z,140
2018-04-18T14:37:50.564Z,140
2018-04-18T14:38:58.631Z,140
2018-04-18T14:40:06.687Z,135
2018-04-18T14:41:14.730Z,135
2018-04-18T14:42:22.827Z,135
2018-04-18T14:43:30.918Z,135
2018-04-18T14:44:38.954Z,135
2018-04-18T14:45:47.046Z,135
2018-04-18T14:46:55.066Z,135
2018-04-18T14:48:03.161Z,135
2018-04-18T14:49:11.240Z,135
2018-04-18T14:50:19.300Z,135
2018-04-18T14:51:27.360Z,135
2018-04-18T14:52:35.421Z,135
2018-04-18T14:53:43.513Z,135
2018-04-18T14:54:51.567Z,135
2018-04-18T14:55:59.647Z,135
2018-04-18T14:57:07.709Z,135
2018-04-18T14:58:15.770Z,135
2018-04-18T14:59:23.842Z,130
2018-04-18T15:00:31.900Z,130
2018-04-18T15:01:39.982Z,130
2018-04-18T15:02:48.039Z,130
2018-04-18T15:03:56.118Z,130
2018-04-18T15:05:04.181Z,130
2018-04-18T15:06:12.261Z,130
2018-04-18T15:07:20.323Z,130
2018-04-18T15:08:28.381Z,130
2018-04-18T15:09:36.450Z,130
2018-04-18T15:10:44.521Z,130
2018-04-18T15:11:52.579Z,130
2018-04-18T15:13:00.653Z,130
2018-04-18T15:14:08.709Z,130
2018-04-18T15:15:16.790Z,130
2018-04-18T15:16:24.833Z,130
2018-04-18T15:17:32.921Z,125
2018-04-18T15:18:40.982Z,125
2018-04-18T15:19:49.064Z,125
2018-04-18T15:20:57.115Z,125
2018-04-18T15:22:05.164Z,125
2018-04-18T15:23:13.254Z,125
2018-04-18T15:24:21.327Z,125
2018-04-18T15:25:29.407Z,125
2018-04-18T15:26:37.476Z,125
2018-04-18T15:27:45.505Z,125
2018-04-18T15:28:53.642Z,125
2018-04-18T15:30:01.676Z,125
2018-04-18T15:31:09.738Z,125
2018-04-18T15:32:17.809Z,125
2018-04-18T15:33:25.871Z,120
2018-04-18T15:34:33.935Z,120
2018-04-18T15:35:42.005Z,125
2018-04-18T15:36:50.079Z,120
2018-04-18T15:37:58.156Z,125
2018-04-18T15:39:06.200Z,120
2018-04-18T15:40:14.289Z,120
2018-04-18T15:41:22.348Z,120
2018-04-18T15:42:30.455Z,120
2018-04-18T15:43:38.482Z,120
2018-04-18T15:44:46.548Z,120
2018-04-18T15:45:54.597Z,120
2018-04-18T15:47:02.691Z,120
2018-04-18T15:48:10.754Z,120
2018-04-18T15:49:18.836Z,115
2018-04-18T15:50:26.941Z,115
2018-04-18T15:51:34.931Z,115
2018-04-18T15:52:43.021Z,115
2018-04-18T15:53:51.087Z,115
2018-04-18T15:54:59.154Z,115
2018-04-18T15:56:07.218Z,115
2018-04-18T15:57:15.268Z,115